Meteo Giornale » Osservazioni meteo Messico » Mexico City-Licenci

ore: 23:42 - Osservazioni Meteo Mexico City-Licenci
Lat. 19° 26' N Lon. 99° 6' W Alt. 2238 metri s.l.m.

molto_nuvoloso America/Mexico_City

18 °C

Molto Nuvoloso

Temp. 24 Ore

14 °C

25 °C

Ovest

14.8 Km/h

Dew point 11 °C

Umidità 63 %

Visibilità  10 Km

Il sole sorge alle ore 07:17

Il sole tramonta alle ore 20:02

Data e Ora Cielo e Fenomeni T °C DP °C Um. % Pres. hPa Vis. km Vento km/h
Ieri h: 23:42 molto_nuvoloso Molto Nuvoloso 18 11 63 1028 10 O 14.8
Ieri h: 22:43 molto_nuvoloso Molto Nuvoloso 18 11 63 1027 10 N/NO 11.1
Ieri h: 22:29 molto_nuvoloso Molto Nuvoloso 18 11 63 1027 10 N/NO 13
Ieri h: 22:00 coperto_temporali Temporale 17 12 72 1026 13 N/NE 16.7
Ieri h: 21:45 nuvoloso_temporali Temporale con Pioggia Debole 15 13 87 1026 8 N 18.5
Ieri h: 21:42 nuvoloso_temporali Temporale con Pioggia Debole 14 13 93 1026 8 N 16.7
Ieri h: 21:32 nuvoloso_temporali Temporale con Pioggia 14 13 93 1026 5 N/NE 14.8
Ieri h: 21:23 nuvoloso_temporali Temporale con Pioggia 16 13 82 1026 6 E 31.5
Ieri h: 21:19 nuvoloso_temporali Temporale con Pioggia Debole 18 11 63 1026 11 E/NE 29.6
Ieri h: 20:43 molto_nuvoloso Molto Nuvoloso 19 11 59 1025 13 N/NE 22.2
Ieri h: 20:10 coperto Coperto 20 12 59 1024 13 E/NE 37
Ieri h: 19:44 molto_nuvoloso Molto Nuvoloso 22 10 46 1023 10 N/NE 18.5
Ieri h: 19:31 molto_nuvoloso Molto Nuvoloso 22 10 46 1023 10 N/NE 18.5
Ieri h: 18:49 molto_nuvoloso Molto Nuvoloso 22 12 53 1023 10 NO 11.1
Ieri h: 18:14 molto_nuvoloso Molto Nuvoloso 21 11 52 1023 10 O/NO 11.1
Ieri h: 17:49 coperto_pioggia Pioggia Debole 23 12 49 1023 13 N/NE 22.2
Ieri h: 17:43 molto_nuvoloso Molto Nuvoloso 25 9 36 1023 13 N 9.3
Ieri h: 16:44 molto_nuvoloso Molto Nuvoloso 24 8 35 1023 13 NO 13
Ieri h: 15:44 molto_nuvoloso Molto Nuvoloso 24 9 38 1025 13 NE 9.3
Ieri h: 14:47 molto_nuvoloso Molto Nuvoloso 24 8 35 1026 13 N/NE 11.1
Ieri h: 14:43 molto_nuvoloso Molto Nuvoloso 24 10 41 1026 13 N 5.5
Ieri h: 13:45 nuvoloso Nuvoloso 22 9 43 1027 13 N 5.5
Ieri h: 12:45 nuvoloso Nuvoloso 21 10 49 1027 11 O 7.4
Ieri h: 12:23 nuvoloso Nuvoloso 21 10 49 1028 13 NO 14.8
Ieri h: 11:47 nuvoloso Nuvoloso 19 11 59 1028 13 N 5.5
Ieri h: 10:50 nuvoloso Nuvoloso 18 11 63 1029 13 N 5.5
Ieri h: 09:48 molto_nuvoloso Molto Nuvoloso 17 12 72 1029 13 E/NE 7.4
Ieri h: 08:47 molto_nuvoloso Molto Nuvoloso 16 11 72 1028 10 N 5.5
Ieri h: 07:45 molto_nuvoloso Molto Nuvoloso 15 11 76 1028 11 N 7.4
Ieri h: 06:49 molto_nuvoloso Molto Nuvoloso 15 12 82 1027 10 NE 7.4
Ieri h: 05:45 nuvoloso Nuvoloso 15 12 82 1027 10 O/NO 13
Ieri h: 04:48 molto_nuvoloso Molto Nuvoloso 15 12 82 1027 10 N 0
Ieri h: 03:53 molto_nuvoloso Molto Nuvoloso 15 12 82 1028 19 N 3.7
Ieri h: 02:48 molto_nuvoloso Molto Nuvoloso 16 12 77 1028 19 N 5.5
Ieri h: 01:47 molto_nuvoloso Molto Nuvoloso 15 12 82 1029 19 S/SO 7.4
Ieri h: 00:51 nuvoloso Nuvoloso 15 12 82 1029 19 SO 13